sensor_id;sensor_type;location;lat;lon;timestamp;pressure;altitude;pressure_sealevel;temperature;humidity
10470;BME280;5282;47.052;15.458;2023-07-20T00:00:42;97067.22;;;20.91;100.00
10470;BME280;5282;47.052;15.458;2023-07-20T00:03:11;97062.19;;;21.17;100.00
10470;BME280;5282;47.052;15.458;2023-07-20T00:05:45;97054.47;;;21.31;100.00
10470;BME280;5282;47.052;15.458;2023-07-20T00:08:13;97054.81;;;21.35;100.00
10470;BME280;5282;47.052;15.458;2023-07-20T00:10:42;97055.16;;;21.38;100.00
10470;BME280;5282;47.052;15.458;2023-07-20T00:13:11;97059.03;;;21.42;100.00
10470;BME280;5282;47.052;15.458;2023-07-20T00:15:39;97065.69;;;21.47;100.00
10470;BME280;5282;47.052;15.458;2023-07-20T00:18:06;97049.59;;;21.50;100.00
10470;BME280;5282;47.052;15.458;2023-07-20T00:20:33;97050.66;;;21.49;100.00
10470;BME280;5282;47.052;15.458;2023-07-20T00:23:01;97057.91;;;21.55;100.00
10470;BME280;5282;47.052;15.458;2023-07-20T00:25:28;97053.16;;;21.51;100.00
10470;BME280;5282;47.052;15.458;2023-07-20T00:27:55;97055.97;;;21.56;100.00
10470;BME280;5282;47.052;15.458;2023-07-20T00:30:22;97052.59;;;21.66;100.00
10470;BME280;5282;47.052;15.458;2023-07-20T00:32:50;97048.78;;;21.67;100.00
10470;BME280;5282;47.052;15.458;2023-07-20T00:35:19;97046.44;;;21.76;100.00
10470;BME280;5282;47.052;15.458;2023-07-20T00:37:48;97054.31;;;21.72;100.00
10470;BME280;5282;47.052;15.458;2023-07-20T00:40:16;97052.81;;;21.81;100.00
10470;BME280;5282;47.052;15.458;2023-07-20T00:42:43;97051.56;;;21.55;100.00
10470;BME280;5282;47.052;15.458;2023-07-20T00:45:10;97057.63;;;21.40;100.00
10470;BME280;5282;47.052;15.458;2023-07-20T00:47:37;97067.53;;;21.41;100.00
10470;BME280;5282;47.052;15.458;2023-07-20T00:50:05;97062.19;;;21.51;100.00
10470;BME280;5282;47.052;15.458;2023-07-20T00:52:33;97064.75;;;21.07;100.00
10470;BME280;5282;47.052;15.458;2023-07-20T00:55:03;97066.81;;;21.00;100.00
10470;BME280;5282;47.052;15.458;2023-07-20T00:57:32;97064.00;;;20.94;100.00
10470;BME280;5282;47.052;15.458;2023-07-20T00:59:59;97060.63;;;21.21;100.00
10470;BME280;5282;47.052;15.458;2023-07-20T01:02:26;97057.94;;;20.92;100.00
10470;BME280;5282;47.052;15.458;2023-07-20T01:04:53;97052.13;;;20.89;100.00
10470;BME280;5282;47.052;15.458;2023-07-20T01:07:23;97046.31;;;20.85;100.00
10470;BME280;5282;47.052;15.458;2023-07-20T01:09:59;97055.69;;;20.89;100.00
10470;BME280;5282;47.052;15.458;2023-07-20T01:12:39;97050.06;;;20.67;100.00
10470;BME280;5282;47.052;15.458;2023-07-20T01:15:07;97043.81;;;20.84;100.00
10470;BME280;5282;47.052;15.458;2023-07-20T01:17:34;97042.66;;;20.79;100.00
10470;BME280;5282;47.052;15.458;2023-07-20T01:20:02;97047.75;;;21.05;100.00
10470;BME280;5282;47.052;15.458;2023-07-20T01:22:47;97044.69;;;21.01;100.00
10470;BME280;5282;47.052;15.458;2023-07-20T01:25:25;97038.97;;;20.74;100.00
10470;BME280;5282;47.052;15.458;2023-07-20T01:28:21;97039.03;;;20.91;100.00
10470;BME280;5282;47.052;15.458;2023-07-20T01:30:56;97039.41;;;20.83;100.00
10470;BME280;5282;47.052;15.458;2023-07-20T01:33:29;97038.38;;;20.72;100.00
10470;BME280;5282;47.052;15.458;2023-07-20T01:36:01;97046.88;;;20.58;100.00
10470;BME280;5282;47.052;15.458;2023-07-20T01:38:33;97047.22;;;20.62;100.00
10470;BME280;5282;47.052;15.458;2023-07-20T01:41:05;97049.59;;;20.58;100.00
10470;BME280;5282;47.052;15.458;2023-07-20T01:43:35;97058.22;;;20.50;100.00
10470;BME280;5282;47.052;15.458;2023-07-20T01:46:08;97060.84;;;20.74;100.00
10470;BME280;5282;47.052;15.458;2023-07-20T01:48:45;97063.72;;;20.67;100.00
10470;BME280;5282;47.052;15.458;2023-07-20T01:51:12;97072.69;;;20.50;100.00
10470;BME280;5282;47.052;15.458;2023-07-20T01:53:45;97072.63;;;20.74;100.00
10470;BME280;5282;47.052;15.458;2023-07-20T01:56:12;97072.22;;;20.54;100.00
10470;BME280;5282;47.052;15.458;2023-07-20T01:58:39;97074.28;;;20.34;100.00
10470;BME280;5282;47.052;15.458;2023-07-20T02:01:06;97071.81;;;20.33;100.00
10470;BME280;5282;47.052;15.458;2023-07-20T02:03:33;97085.00;;;20.24;100.00
10470;BME280;5282;47.052;15.458;2023-07-20T02:06:03;97078.75;;;20.12;100.00
10470;BME280;5282;47.052;15.458;2023-07-20T02:08:30;97084.47;;;20.10;100.00
10470;BME280;5282;47.052;15.458;2023-07-20T02:10:56;97087.28;;;20.15;100.00
10470;BME280;5282;47.052;15.458;2023-07-20T02:13:24;97093.34;;;20.29;100.00
10470;BME280;5282;47.052;15.458;2023-07-20T02:15:51;97095.06;;;20.47;100.00
10470;BME280;5282;47.052;15.458;2023-07-20T02:18:18;97084.88;;;20.19;100.00
10470;BME280;5282;47.052;15.458;2023-07-20T02:20:45;97087.28;;;20.15;100.00
10470;BME280;5282;47.052;15.458;2023-07-20T02:23:14;97085.53;;;20.09;100.00
10470;BME280;5282;47.052;15.458;2023-07-20T02:25:41;97090.50;;;20.00;100.00
10470;BME280;5282;47.052;15.458;2023-07-20T02:28:14;97089.91;;;19.98;100.00
10470;BME280;5282;47.052;15.458;2023-07-20T02:30:41;97102.88;;;19.91;100.00
10470;BME280;5282;47.052;15.458;2023-07-20T02:33:08;97106.31;;;19.98;100.00
10470;BME280;5282;47.052;15.458;2023-07-20T02:35:35;97109.88;;;20.11;100.00
10470;BME280;5282;47.052;15.458;2023-07-20T02:38:02;97118.53;;;20.08;100.00
10470;BME280;5282;47.052;15.458;2023-07-20T02:40:31;97108.53;;;20.25;100.00
10470;BME280;5282;47.052;15.458;2023-07-20T02:42:58;97119.94;;;20.22;100.00
10470;BME280;5282;47.052;15.458;2023-07-20T02:45:25;97124.50;;;20.04;100.00
10470;BME280;5282;47.052;15.458;2023-07-20T02:47:52;97118.16;;;19.80;100.00
10470;BME280;5282;47.052;15.458;2023-07-20T02:50:19;97130.03;;;19.74;100.00
10470;BME280;5282;47.052;15.458;2023-07-20T02:52:47;97122.19;;;19.78;100.00
10470;BME280;5282;47.052;15.458;2023-07-20T02:55:14;97124.34;;;19.76;100.00
10470;BME280;5282;47.052;15.458;2023-07-20T02:57:42;97127.19;;;19.69;100.00
10470;BME280;5282;47.052;15.458;2023-07-20T03:00:10;97131.56;;;19.70;100.00
10470;BME280;5282;47.052;15.458;2023-07-20T03:02:40;97112.69;;;19.68;100.00
10470;BME280;5282;47.052;15.458;2023-07-20T03:05:10;97115.66;;;19.79;100.00
10470;BME280;5282;47.052;15.458;2023-07-20T03:07:37;97112.69;;;19.80;100.00
10470;BME280;5282;47.052;15.458;2023-07-20T03:10:05;97116.50;;;19.79;100.00
10470;BME280;5282;47.052;15.458;2023-07-20T03:12:36;97108.19;;;19.74;100.00
10470;BME280;5282;47.052;15.458;2023-07-20T03:15:05;97115.78;;;19.72;100.00
10470;BME280;5282;47.052;15.458;2023-07-20T03:17:32;97120.03;;;19.68;100.00
10470;BME280;5282;47.052;15.458;2023-07-20T03:19:59;97105.72;;;19.72;100.00
10470;BME280;5282;47.052;15.458;2023-07-20T03:22:26;97111.88;;;19.80;100.00
10470;BME280;5282;47.052;15.458;2023-07-20T03:24:53;97111.03;;;19.79;100.00
10470;BME280;5282;47.052;15.458;2023-07-20T03:27:20;97107.47;;;19.79;100.00
10470;BME280;5282;47.052;15.458;2023-07-20T03:29:47;97114.25;;;19.76;100.00
10470;BME280;5282;47.052;15.458;2023-07-20T03:32:16;97116.13;;;19.76;100.00
10470;BME280;5282;47.052;15.458;2023-07-20T03:34:43;97106.66;;;19.78;100.00
10470;BME280;5282;47.052;15.458;2023-07-20T03:37:11;97106.75;;;19.83;100.00
10470;BME280;5282;47.052;15.458;2023-07-20T03:39:38;97109.16;;;19.92;100.00
10470;BME280;5282;47.052;15.458;2023-07-20T03:42:05;97110.22;;;19.91;100.00
10470;BME280;5282;47.052;15.458;2023-07-20T03:44:32;97113.22;;;19.89;100.00
10470;BME280;5282;47.052;15.458;2023-07-20T03:46:59;97115.47;;;19.92;100.00
10470;BME280;5282;47.052;15.458;2023-07-20T03:49:27;97127.56;;;19.96;100.00
10470;BME280;5282;47.052;15.458;2023-07-20T03:51:59;97124.50;;;20.04;100.00
10470;BME280;5282;47.052;15.458;2023-07-20T03:54:28;97131.63;;;20.06;100.00
10470;BME280;5282;47.052;15.458;2023-07-20T03:57:01;97125.88;;;20.19;100.00
10470;BME280;5282;47.052;15.458;2023-07-20T03:59:38;97125.31;;;20.17;100.00
10470;BME280;5282;47.052;15.458;2023-07-20T04:02:09;97121.47;;;20.30;100.00
10470;BME280;5282;47.052;15.458;2023-07-20T04:04:45;97124.47;;;20.28;100.00
10470;BME280;5282;47.052;15.458;2023-07-20T04:07:13;97124.34;;;20.35;100.00
10470;BME280;5282;47.052;15.458;2023-07-20T04:09:44;97122.69;;;20.34;100.00
10470;BME280;5282;47.052;15.458;2023-07-20T04:12:21;97123.03;;;20.38;100.00
10470;BME280;5282;47.052;15.458;2023-07-20T04:15:04;97122.41;;;20.47;100.00
10470;BME280;5282;47.052;15.458;2023-07-20T04:17:51;97133.09;;;20.49;100.00
10470;BME280;5282;47.052;15.458;2023-07-20T04:20:30;97132.97;;;20.44;100.00
10470;BME280;5282;47.052;15.458;2023-07-20T04:23:02;97129.50;;;20.60;100.00
10470;BME280;5282;47.052;15.458;2023-07-20T04:25:31;97131.50;;;20.65;100.00
10470;BME280;5282;47.052;15.458;2023-07-20T04:28:08;97142.19;;;20.66;100.00
10470;BME280;5282;47.052;15.458;2023-07-20T04:30:35;97137.91;;;20.71;100.00
10470;BME280;5282;47.052;15.458;2023-07-20T04:33:04;97147.91;;;20.65;100.00
10470;BME280;5282;47.052;15.458;2023-07-20T04:35:48;97140.41;;;20.84;100.00
10470;BME280;5282;47.052;15.458;2023-07-20T04:38:26;97140.75;;;20.88;100.00
10470;BME280;5282;47.052;15.458;2023-07-20T04:41:05;97149.94;;;20.82;100.00
10470;BME280;5282;47.052;15.458;2023-07-20T04:43:34;97146.47;;;20.86;100.00
10470;BME280;5282;47.052;15.458;2023-07-20T04:46:03;97157.50;;;20.91;100.00
10470;BME280;5282;47.052;15.458;2023-07-20T04:48:36;97151.44;;;20.89;100.00
10470;BME280;5282;47.052;15.458;2023-07-20T04:51:11;97143.88;;;20.79;100.00
10470;BME280;5282;47.052;15.458;2023-07-20T04:53:44;97151.56;;;20.83;100.00
10470;BME280;5282;47.052;15.458;2023-07-20T04:56:12;97156.69;;;20.79;100.00
10470;BME280;5282;47.052;15.458;2023-07-20T04:58:43;97156.09;;;20.77;100.00
10470;BME280;5282;47.052;15.458;2023-07-20T05:01:19;97158.13;;;20.70;100.00
10470;BME280;5282;47.052;15.458;2023-07-20T05:03:49;97155.13;;;20.71;100.00
10470;BME280;5282;47.052;15.458;2023-07-20T05:06:18;97152.56;;;20.76;100.00
10470;BME280;5282;47.052;15.458;2023-07-20T05:08:45;97160.38;;;20.73;100.00
10470;BME280;5282;47.052;15.458;2023-07-20T05:11:12;97164.56;;;20.75;100.00
10470;BME280;5282;47.052;15.458;2023-07-20T05:13:39;97158.84;;;20.77;100.00
10470;BME280;5282;47.052;15.458;2023-07-20T05:16:05;97154.31;;;20.83;100.00
10470;BME280;5282;47.052;15.458;2023-07-20T05:18:32;97155.03;;;20.78;100.00
10470;BME280;5282;47.052;15.458;2023-07-20T05:20:59;97149.69;;;20.83;100.00
10470;BME280;5282;47.052;15.458;2023-07-20T05:23:28;97155.25;;;20.88;100.00
10470;BME280;5282;47.052;15.458;2023-07-20T05:25:55;97160.09;;;20.98;100.00
10470;BME280;5282;47.052;15.458;2023-07-20T05:28:23;97155.56;;;21.04;100.00
10470;BME280;5282;47.052;15.458;2023-07-20T05:30:50;97158.41;;;21.09;100.00
10470;BME280;5282;47.052;15.458;2023-07-20T05:33:18;97159.50;;;21.25;100.00
10470;BME280;5282;47.052;15.458;2023-07-20T05:35:45;97164.31;;;21.35;100.00
10470;BME280;5282;47.052;15.458;2023-07-20T05:38:13;97171.81;;;21.39;100.00
10470;BME280;5282;47.052;15.458;2023-07-20T05:40:42;97171.56;;;21.41;100.00
10470;BME280;5282;47.052;15.458;2023-07-20T05:43:09;97175.78;;;21.32;100.00
10470;BME280;5282;47.052;15.458;2023-07-20T05:45:36;97174.47;;;21.34;100.00
10470;BME280;5282;47.052;15.458;2023-07-20T05:48:04;97179.00;;;21.29;100.00
10470;BME280;5282;47.052;15.458;2023-07-20T05:50:30;97175.78;;;21.32;100.00
10470;BME280;5282;47.052;15.458;2023-07-20T05:52:57;97181.50;;;21.30;100.00
10470;BME280;5282;47.052;15.458;2023-07-20T05:55:24;97179.13;;;21.34;100.00
10470;BME280;5282;47.052;15.458;2023-07-20T05:57:53;97178.94;;;21.40;100.00
10470;BME280;5282;47.052;15.458;2023-07-20T06:00:21;97179.75;;;21.70;100.00
10470;BME280;5282;47.052;15.458;2023-07-20T06:02:52;97178.00;;;21.64;100.00
10470;BME280;5282;47.052;15.458;2023-07-20T06:05:20;97176.69;;;21.66;100.00
10470;BME280;5282;47.052;15.458;2023-07-20T06:07:47;97177.19;;;21.80;100.00
10470;BME280;5282;47.052;15.458;2023-07-20T06:10:14;97172.72;;;21.74;100.00
10470;BME280;5282;47.052;15.458;2023-07-20T06:12:42;97183.50;;;21.64;100.00
10470;BME280;5282;47.052;15.458;2023-07-20T06:18:02;97183.50;;;21.64;100.00
10470;BME280;5282;47.052;15.458;2023-07-20T06:20:29;97185.81;;;21.72;100.00
10470;BME280;5282;47.052;15.458;2023-07-20T06:22:56;97190.81;;;21.75;100.00
10470;BME280;5282;47.052;15.458;2023-07-20T06:25:25;97189.97;;;21.75;100.00
10470;BME280;5282;47.052;15.458;2023-07-20T06:27:55;97190.16;;;21.68;100.00
10470;BME280;5282;47.052;15.458;2023-07-20T06:30:22;97198.03;;;21.81;100.00
10470;BME280;5282;47.052;15.458;2023-07-20T06:32:49;97192.31;;;21.83;100.00
10470;BME280;5282;47.052;15.458;2023-07-20T06:35:17;97199.28;;;21.91;100.00
10470;BME280;5282;47.052;15.458;2023-07-20T06:37:44;97199.34;;;21.96;100.00
10470;BME280;5282;47.052;15.458;2023-07-20T06:40:12;97199.34;;;21.96;100.00
10470;BME280;5282;47.052;15.458;2023-07-20T06:42:39;97203.91;;;22.07;100.00
10470;BME280;5282;47.052;15.458;2023-07-20T06:45:06;97198.94;;;22.04;100.00
10470;BME280;5282;47.052;15.458;2023-07-20T06:47:34;97198.25;;;22.31;100.00
10470;BME280;5282;47.052;15.458;2023-07-20T06:50:00;97198.75;;;22.28;100.00
10470;BME280;5282;47.052;15.458;2023-07-20T06:52:29;97194.75;;;22.53;100.00
10470;BME280;5282;47.052;15.458;2023-07-20T06:54:56;97197.44;;;22.47;100.00
10470;BME280;5282;47.052;15.458;2023-07-20T06:57:23;97204.31;;;22.33;100.00
10470;BME280;5282;47.052;15.458;2023-07-20T06:59:50;97206.47;;;22.31;100.00
10470;BME280;5282;47.052;15.458;2023-07-20T07:02:18;97201.25;;;22.29;100.00
10470;BME280;5282;47.052;15.458;2023-07-20T07:04:45;97199.03;;;22.09;100.00
10470;BME280;5282;47.052;15.458;2023-07-20T07:07:13;97205.09;;;22.11;100.00
10470;BME280;5282;47.052;15.458;2023-07-20T07:09:42;97213.91;;;22.13;100.00
10470;BME280;5282;47.052;15.458;2023-07-20T07:12:09;97208.66;;;22.12;100.00
10470;BME280;5282;47.052;15.458;2023-07-20T07:14:36;97219.88;;;22.10;100.00
10470;BME280;5282;47.052;15.458;2023-07-20T07:17:03;97214.97;;;22.12;100.00
10470;BME280;5282;47.052;15.458;2023-07-20T07:19:30;97222.13;;;22.13;100.00
10470;BME280;5282;47.052;15.458;2023-07-20T07:21:57;97222.66;;;22.32;100.00
10470;BME280;5282;47.052;15.458;2023-07-20T07:24:24;97215.94;;;22.40;100.00
10470;BME280;5282;47.052;15.458;2023-07-20T07:26:52;97234.66;;;22.43;100.00
10470;BME280;5282;47.052;15.458;2023-07-20T07:29:19;97221.78;;;22.44;100.00
10470;BME280;5282;47.052;15.458;2023-07-20T07:31:46;97217.72;;;22.46;100.00
10470;BME280;5282;47.052;15.458;2023-07-20T07:34:12;97224.28;;;22.45;100.00
10470;BME280;5282;47.052;15.458;2023-07-20T07:36:39;97219.38;;;22.47;100.00
10470;BME280;5282;47.052;15.458;2023-07-20T07:39:06;97216.19;;;22.56;100.00
10470;BME280;5282;47.052;15.458;2023-07-20T07:41:33;97208.00;;;22.61;100.00
10470;BME280;5282;47.052;15.458;2023-07-20T07:44:01;97214.03;;;22.58;100.00
10470;BME280;5282;47.052;15.458;2023-07-20T07:46:28;97213.00;;;22.64;100.00
10470;BME280;5282;47.052;15.458;2023-07-20T07:48:55;97216.19;;;22.56;100.00
10470;BME280;5282;47.052;15.458;2023-07-20T07:51:22;97209.31;;;22.53;100.00
10470;BME280;5282;47.052;15.458;2023-07-20T07:53:49;97215.84;;;22.69;100.00
10470;BME280;5282;47.052;15.458;2023-07-20T07:56:16;97204.63;;;22.93;100.00
10470;BME280;5282;47.052;15.458;2023-07-20T07:58:46;97200.38;;;23.07;100.00
10470;BME280;5282;47.052;15.458;2023-07-20T08:01:15;97200.00;;;23.21;100.00
10470;BME280;5282;47.052;15.458;2023-07-20T08:03:44;97198.00;;;23.16;100.00
10470;BME280;5282;47.052;15.458;2023-07-20T08:06:12;97190.84;;;23.37;100.00
10470;BME280;5282;47.052;15.458;2023-07-20T08:08:39;97195.50;;;23.37;100.00
10470;BME280;5282;47.052;15.458;2023-07-20T08:11:06;97198.69;;;23.51;100.00
10470;BME280;5282;47.052;15.458;2023-07-20T08:13:33;97196.63;;;23.63;100.00
10470;BME280;5282;47.052;15.458;2023-07-20T08:16:00;97206.84;;;23.73;100.00
10470;BME280;5282;47.052;15.458;2023-07-20T08:18:29;97201.72;;;23.82;100.00
10470;BME280;5282;47.052;15.458;2023-07-20T08:20:59;97215.28;;;24.26;100.00
10470;BME280;5282;47.052;15.458;2023-07-20T08:23:25;97205.03;;;24.54;100.00
10470;BME280;5282;47.052;15.458;2023-07-20T08:25:53;97200.84;;;24.46;100.00
10470;BME280;5282;47.052;15.458;2023-07-20T08:28:20;97202.00;;;24.56;100.00
10470;BME280;5282;47.052;15.458;2023-07-20T08:30:48;97201.94;;;24.93;100.00
10470;BME280;5282;47.052;15.458;2023-07-20T08:33:16;97201.44;;;25.07;97.54
10470;BME280;5282;47.052;15.458;2023-07-20T08:35:46;97203.63;;;25.00;100.00
10470;BME280;5282;47.052;15.458;2023-07-20T08:38:13;97211.06;;;25.09;100.00
10470;BME280;5282;47.052;15.458;2023-07-20T08:40:42;97201.22;;;25.19;100.00
10470;BME280;5282;47.052;15.458;2023-07-20T08:43:10;97206.19;;;25.32;100.00
10470;BME280;5282;47.052;15.458;2023-07-20T08:45:38;97210.97;;;25.47;100.00
10470;BME280;5282;47.052;15.458;2023-07-20T08:48:07;97202.13;;;25.45;100.00
10470;BME280;5282;47.052;15.458;2023-07-20T08:50:35;97198.56;;;25.60;97.53
10470;BME280;5282;47.052;15.458;2023-07-20T08:53:03;97197.50;;;25.87;91.36
10470;BME280;5282;47.052;15.458;2023-07-20T08:55:31;97207.72;;;26.02;98.81
10470;BME280;5282;47.052;15.458;2023-07-20T08:57:59;97204.44;;;26.15;93.28
10470;BME280;5282;47.052;15.458;2023-07-20T09:00:27;97199.44;;;26.33;100.00
10470;BME280;5282;47.052;15.458;2023-07-20T09:02:55;97211.84;;;26.41;98.90
10470;BME280;5282;47.052;15.458;2023-07-20T09:05:23;97211.00;;;26.40;93.85
10470;BME280;5282;47.052;15.458;2023-07-20T09:07:51;97206.06;;;26.37;97.88
10470;BME280;5282;47.052;15.458;2023-07-20T09:10:20;97202.75;;;26.35;100.00
10470;BME280;5282;47.052;15.458;2023-07-20T09:12:47;97209.31;;;26.55;99.79
10470;BME280;5282;47.052;15.458;2023-07-20T09:15:14;97199.72;;;26.26;87.93
10470;BME280;5282;47.052;15.458;2023-07-20T09:17:46;97191.97;;;26.44;96.46
10470;BME280;5282;47.052;15.458;2023-07-20T09:20:16;97198.78;;;26.77;80.02
10470;BME280;5282;47.052;15.458;2023-07-20T09:22:44;97197.09;;;26.92;88.74
10470;BME280;5282;47.052;15.458;2023-07-20T09:25:11;97205.09;;;26.99;85.61
10470;BME280;5282;47.052;15.458;2023-07-20T09:27:41;97188.22;;;27.05;77.93
10470;BME280;5282;47.052;15.458;2023-07-20T09:30:10;97188.75;;;27.02;77.58
10470;BME280;5282;47.052;15.458;2023-07-20T09:32:40;97192.22;;;27.29;70.11
10470;BME280;5282;47.052;15.458;2023-07-20T09:35:12;97202.94;;;27.46;78.63
10470;BME280;5282;47.052;15.458;2023-07-20T09:37:39;97189.13;;;27.46;72.25
10470;BME280;5282;47.052;15.458;2023-07-20T09:40:07;97191.63;;;27.47;78.48
10470;BME280;5282;47.052;15.458;2023-07-20T09:42:35;97187.16;;;27.51;83.29
10470;BME280;5282;47.052;15.458;2023-07-20T09:45:07;97193.47;;;27.57;69.47
10470;BME280;5282;47.052;15.458;2023-07-20T09:47:36;97188.59;;;27.83;61.10
10470;BME280;5282;47.052;15.458;2023-07-20T09:50:05;97193.84;;;27.80;62.72
10470;BME280;5282;47.052;15.458;2023-07-20T09:52:40;97196.22;;;27.97;69.32
10470;BME280;5282;47.052;15.458;2023-07-20T09:55:09;97195.25;;;28.17;65.34
10470;BME280;5282;47.052;15.458;2023-07-20T09:57:37;97197.81;;;28.38;64.91
10470;BME280;5282;47.052;15.458;2023-07-20T10:00:07;97192.91;;;28.29;62.69
10470;BME280;5282;47.052;15.458;2023-07-20T10:02:41;97198.00;;;28.46;65.59
10470;BME280;5282;47.052;15.458;2023-07-20T10:05:11;97203.22;;;28.53;62.21
10470;BME280;5282;47.052;15.458;2023-07-20T10:07:43;97192.19;;;28.48;64.79
10470;BME280;5282;47.052;15.458;2023-07-20T10:10:11;97200.06;;;28.36;58.12
10470;BME280;5282;47.052;15.458;2023-07-20T10:12:41;97194.91;;;28.53;69.23
10470;BME280;5282;47.052;15.458;2023-07-20T10:15:15;97193.22;;;28.57;79.36
10470;BME280;5282;47.052;15.458;2023-07-20T10:17:52;97200.31;;;28.63;68.92
10470;BME280;5282;47.052;15.458;2023-07-20T10:20:21;97194.03;;;28.82;70.78
10470;BME280;5282;47.052;15.458;2023-07-20T10:22:53;97188.03;;;28.75;61.88
10470;BME280;5282;47.052;15.458;2023-07-20T10:25:22;97189.56;;;28.62;67.62
10470;BME280;5282;47.052;15.458;2023-07-20T10:27:49;97189.50;;;28.38;65.87
10470;BME280;5282;47.052;15.458;2023-07-20T10:30:18;97180.84;;;28.20;76.94
10470;BME280;5282;47.052;15.458;2023-07-20T10:32:47;97183.72;;;28.05;78.91
10470;BME280;5282;47.052;15.458;2023-07-20T10:35:14;97187.53;;;28.14;74.81
10470;BME280;5282;47.052;15.458;2023-07-20T10:37:52;97182.28;;;28.07;72.61
10470;BME280;5282;47.052;15.458;2023-07-20T10:40:30;97183.13;;;28.08;69.04
10470;BME280;5282;47.052;15.458;2023-07-20T10:43:02;97182.53;;;27.81;65.72
10470;BME280;5282;47.052;15.458;2023-07-20T10:45:41;97182.94;;;27.64;59.67
10470;BME280;5282;47.052;15.458;2023-07-20T10:48:15;97182.00;;;27.29;53.95
10470;BME280;5282;47.052;15.458;2023-07-20T10:50:43;97178.63;;;27.37;64.03
10470;BME280;5282;47.052;15.458;2023-07-20T10:53:11;97185.69;;;27.14;55.18
10470;BME280;5282;47.052;15.458;2023-07-20T10:55:39;97189.72;;;26.61;52.72
10470;BME280;5282;47.052;15.458;2023-07-20T10:58:07;97188.09;;;26.50;55.41
10470;BME280;5282;47.052;15.458;2023-07-20T11:00:39;97179.81;;;26.55;59.58
10470;BME280;5282;47.052;15.458;2023-07-20T11:03:32;97169.00;;;26.64;73.16
10470;BME280;5282;47.052;15.458;2023-07-20T11:05:59;97157.28;;;26.98;66.89
10470;BME280;5282;47.052;15.458;2023-07-20T11:08:46;97156.81;;;27.36;69.28
10470;BME280;5282;47.052;15.458;2023-07-20T11:11:23;97157.72;;;27.71;60.91
10470;BME280;5282;47.052;15.458;2023-07-20T11:13:54;97161.22;;;27.82;67.38
10470;BME280;5282;47.052;15.458;2023-07-20T11:16:39;97165.00;;;27.56;50.77
10470;BME280;5282;47.052;15.458;2023-07-20T11:19:14;97164.59;;;27.74;51.61
10470;BME280;5282;47.052;15.458;2023-07-20T11:21:43;97171.28;;;27.67;49.43
10470;BME280;5282;47.052;15.458;2023-07-20T11:24:10;97167.16;;;27.65;49.86
10470;BME280;5282;47.052;15.458;2023-07-20T11:26:46;97169.28;;;27.73;54.96
10470;BME280;5282;47.052;15.458;2023-07-20T11:29:13;97166.91;;;27.61;62.37
10470;BME280;5282;47.052;15.458;2023-07-20T11:31:43;97160.28;;;27.57;60.79
10470;BME280;5282;47.052;15.458;2023-07-20T11:34:12;97160.34;;;27.52;59.43
10470;BME280;5282;47.052;15.458;2023-07-20T11:36:40;97164.25;;;27.40;59.40
10470;BME280;5282;47.052;15.458;2023-07-20T11:39:08;97168.78;;;27.21;55.38
10470;BME280;5282;47.052;15.458;2023-07-20T11:41:36;97184.97;;;26.77;53.98
10470;BME280;5282;47.052;15.458;2023-07-20T11:44:04;97186.06;;;26.92;56.07
10470;BME280;5282;47.052;15.458;2023-07-20T11:46:32;97178.88;;;26.75;61.96
10470;BME280;5282;47.052;15.458;2023-07-20T11:49:00;97171.69;;;26.95;59.19
10470;BME280;5282;47.052;15.458;2023-07-20T11:51:28;97179.44;;;26.77;56.44
10470;BME280;5282;47.052;15.458;2023-07-20T11:53:55;97172.69;;;27.09;57.06
10470;BME280;5282;47.052;15.458;2023-07-20T11:56:23;97167.22;;;27.54;61.32
10470;BME280;5282;47.052;15.458;2023-07-20T11:58:50;97165.69;;;27.78;58.71
10470;BME280;5282;47.052;15.458;2023-07-20T12:01:17;97174.44;;;27.50;58.97
10470;BME280;5282;47.052;15.458;2023-07-20T12:03:48;97167.31;;;27.79;62.04
10470;BME280;5282;47.052;15.458;2023-07-20T12:06:17;97171.72;;;27.80;64.10
10470;BME280;5282;47.052;15.458;2023-07-20T12:08:44;97181.28;;;27.63;68.62
10470;BME280;5282;47.052;15.458;2023-07-20T12:11:11;97174.44;;;27.50;66.87
10470;BME280;5282;47.052;15.458;2023-07-20T12:13:40;97169.31;;;27.23;64.39
10470;BME280;5282;47.052;15.458;2023-07-20T12:16:13;97169.97;;;27.04;68.97
10470;BME280;5282;47.052;15.458;2023-07-20T12:18:41;97170.09;;;26.78;79.53
10470;BME280;5282;47.052;15.458;2023-07-20T12:21:09;97172.34;;;26.61;79.38
10470;BME280;5282;47.052;15.458;2023-07-20T12:23:38;97173.69;;;26.58;79.99
10470;BME280;5282;47.052;15.458;2023-07-20T12:26:08;97178.47;;;26.37;85.14
10470;BME280;5282;47.052;15.458;2023-07-20T12:28:39;97174.63;;;26.28;92.26
10470;BME280;5282;47.052;15.458;2023-07-20T12:31:09;97185.63;;;26.07;93.22
10470;BME280;5282;47.052;15.458;2023-07-20T12:33:39;97185.66;;;26.02;93.96
10470;BME280;5282;47.052;15.458;2023-07-20T12:36:06;97181.50;;;25.63;88.63
10470;BME280;5282;47.052;15.458;2023-07-20T12:38:33;97189.78;;;25.63;98.54
10470;BME280;5282;47.052;15.458;2023-07-20T12:41:02;97203.22;;;25.44;100.00
10470;BME280;5282;47.052;15.458;2023-07-20T12:43:29;97201.50;;;25.22;100.00
10470;BME280;5282;47.052;15.458;2023-07-20T12:45:57;97206.41;;;25.10;100.00
10470;BME280;5282;47.052;15.458;2023-07-20T12:48:24;97210.47;;;24.97;100.00
10470;BME280;5282;47.052;15.458;2023-07-20T12:50:51;97214.56;;;24.84;100.00
10470;BME280;5282;47.052;15.458;2023-07-20T12:53:18;97215.00;;;24.65;100.00
10470;BME280;5282;47.052;15.458;2023-07-20T12:55:45;97219.88;;;24.53;100.00
10470;BME280;5282;47.052;15.458;2023-07-20T12:58:13;97228.59;;;24.40;100.00
10470;BME280;5282;47.052;15.458;2023-07-20T13:00:40;97238.22;;;24.05;100.00
10470;BME280;5282;47.052;15.458;2023-07-20T13:03:07;97237.72;;;23.80;100.00
10470;BME280;5282;47.052;15.458;2023-07-20T13:05:34;97237.16;;;23.51;100.00